createdAt,value
2018-10-04T00:00:23.638Z,14.50
2018-10-04T00:02:50.939Z,14.60
2018-10-04T00:05:18.215Z,14.60
2018-10-04T00:07:45.461Z,14.60
2018-10-04T00:10:12.778Z,14.70
2018-10-04T00:12:40.022Z,14.70
2018-10-04T00:15:07.298Z,14.70
2018-10-04T00:17:34.813Z,14.70
2018-10-04T00:20:02.127Z,14.80
2018-10-04T00:22:29.363Z,14.80
2018-10-04T00:24:56.617Z,14.80
2018-10-04T00:27:23.864Z,14.80
2018-10-04T00:29:51.110Z,14.80
2018-10-04T00:32:18.368Z,14.90
2018-10-04T00:34:45.612Z,14.90
2018-10-04T00:37:12.882Z,14.90
2018-10-04T00:39:40.143Z,14.90
2018-10-04T00:42:07.410Z,14.90
2018-10-04T00:44:34.680Z,15.00
2018-10-04T00:47:01.997Z,15.00
2018-10-04T00:49:29.292Z,15.00
2018-10-04T00:51:56.557Z,15.00
2018-10-04T00:54:23.822Z,15.00
2018-10-04T00:56:51.121Z,15.00
2018-10-04T00:59:18.361Z,15.10
2018-10-04T01:01:45.625Z,15.10
2018-10-04T01:04:12.910Z,15.10
2018-10-04T01:06:40.142Z,15.10
2018-10-04T01:09:07.394Z,15.10
2018-10-04T01:11:34.662Z,15.10
2018-10-04T01:14:01.962Z,15.10
2018-10-04T01:16:29.233Z,15.10
2018-10-04T01:18:58.482Z,15.20
2018-10-04T01:21:25.769Z,15.20
2018-10-04T01:23:53.682Z,15.20
2018-10-04T01:26:21.049Z,15.20
2018-10-04T01:28:49.028Z,15.20
2018-10-04T01:31:16.480Z,15.20
2018-10-04T01:33:43.794Z,15.20
2018-10-04T01:36:11.185Z,15.20
2018-10-04T01:38:38.493Z,15.20
2018-10-04T01:41:06.117Z,15.20
2018-10-04T01:43:33.362Z,15.20
2018-10-04T01:46:00.638Z,15.20
2018-10-04T01:48:28.066Z,15.20
2018-10-04T01:50:55.310Z,15.30
2018-10-04T01:53:22.707Z,15.30
2018-10-04T01:55:49.954Z,15.20
2018-10-04T01:58:17.211Z,15.30
2018-10-04T02:00:44.483Z,15.30
2018-10-04T02:03:11.793Z,15.30
2018-10-04T02:05:39.094Z,15.30
2018-10-04T02:08:06.399Z,15.30
2018-10-04T02:10:34.060Z,15.30
2018-10-04T02:13:01.330Z,15.30
2018-10-04T02:15:28.973Z,15.30
2018-10-04T02:17:56.230Z,15.30
2018-10-04T02:20:23.490Z,15.30
2018-10-04T02:22:51.462Z,15.30
2018-10-04T02:25:18.709Z,15.30
2018-10-04T02:27:45.975Z,15.30
2018-10-04T02:30:13.239Z,15.30
2018-10-04T02:32:40.506Z,15.30
2018-10-04T02:35:07.774Z,15.30
2018-10-04T02:37:35.038Z,15.30
2018-10-04T02:40:02.420Z,15.40
2018-10-04T02:42:29.684Z,15.30
2018-10-04T02:44:57.119Z,15.30
2018-10-04T02:47:25.162Z,15.30
2018-10-04T02:49:52.458Z,15.40
2018-10-04T02:52:19.726Z,15.30
2018-10-04T02:54:52.665Z,15.40
2018-10-04T02:57:19.930Z,15.30
2018-10-04T02:59:47.206Z,15.30
2018-10-04T03:02:14.462Z,15.30
2018-10-04T03:04:41.710Z,15.30
2018-10-04T03:07:09.110Z,15.30
2018-10-04T03:09:36.377Z,15.30
2018-10-04T03:12:03.620Z,15.30
2018-10-04T03:14:30.871Z,15.30
2018-10-04T03:16:58.187Z,15.30
2018-10-04T03:19:25.481Z,15.30
2018-10-04T03:21:52.710Z,15.30
2018-10-04T03:24:19.966Z,15.30
2018-10-04T03:26:47.247Z,15.30
2018-10-04T03:29:14.510Z,15.20
2018-10-04T03:31:41.779Z,15.30
2018-10-04T03:34:09.020Z,15.40
2018-10-04T03:36:36.274Z,15.30
2018-10-04T03:39:05.203Z,15.30
2018-10-04T03:41:32.473Z,15.30
2018-10-04T03:43:59.714Z,15.30
2018-10-04T03:46:26.964Z,15.30
2018-10-04T03:48:54.215Z,15.30
2018-10-04T03:51:21.482Z,15.30
2018-10-04T03:53:48.754Z,15.30
2018-10-04T03:56:16.002Z,15.30
2018-10-04T03:58:43.246Z,15.30
2018-10-04T04:01:12.833Z,15.30
2018-10-04T04:03:40.108Z,15.30
2018-10-04T04:06:07.360Z,15.30
2018-10-04T04:08:34.656Z,15.40
2018-10-04T04:11:01.919Z,15.30
2018-10-04T04:13:29.182Z,15.30
2018-10-04T04:15:56.454Z,15.30
2018-10-04T04:18:23.707Z,15.30
2018-10-04T04:20:50.975Z,15.30
2018-10-04T04:23:18.274Z,15.30
2018-10-04T04:25:45.590Z,15.30
2018-10-04T04:28:12.901Z,15.30
2018-10-04T04:30:40.219Z,15.30
2018-10-04T04:33:07.483Z,15.30
2018-10-04T04:35:34.737Z,15.40
2018-10-04T04:38:02.011Z,15.40
2018-10-04T04:40:29.298Z,15.30
2018-10-04T04:42:56.550Z,15.30
2018-10-04T04:45:23.813Z,15.40
2018-10-04T04:47:51.078Z,15.40
2018-10-04T04:50:18.334Z,15.40
2018-10-04T04:52:45.593Z,15.40
2018-10-04T04:55:35.571Z,15.40
2018-10-04T04:58:03.959Z,15.30
2018-10-04T05:00:32.206Z,15.40
2018-10-04T05:02:59.822Z,15.40
2018-10-04T05:05:27.723Z,15.40
2018-10-04T05:07:56.165Z,15.40
2018-10-04T05:10:23.942Z,15.40
2018-10-04T05:12:51.606Z,15.40
2018-10-04T05:15:18.861Z,15.40
2018-10-04T05:17:46.316Z,15.40
2018-10-04T05:20:13.966Z,15.40
2018-10-04T05:22:41.224Z,15.40
2018-10-04T05:25:08.486Z,15.40
2018-10-04T05:27:35.816Z,15.40
2018-10-04T05:30:03.137Z,15.40
2018-10-04T05:32:30.396Z,15.40
2018-10-04T05:34:57.889Z,15.40
2018-10-04T05:37:25.186Z,15.40
2018-10-04T05:39:52.466Z,15.40
2018-10-04T05:42:19.746Z,15.40
2018-10-04T05:44:47.070Z,15.40
2018-10-04T05:47:15.179Z,15.50
2018-10-04T05:49:43.230Z,15.50
2018-10-04T05:52:10.534Z,15.50
2018-10-04T05:54:37.946Z,15.50
2018-10-04T05:57:05.282Z,15.50
2018-10-04T05:59:32.776Z,15.50
2018-10-04T06:02:00.067Z,15.50
2018-10-04T06:04:27.351Z,15.50
2018-10-04T06:06:54.831Z,15.50
2018-10-04T06:09:22.086Z,15.50
2018-10-04T06:11:49.339Z,15.50
2018-10-04T06:14:17.510Z,15.50
2018-10-04T06:16:45.063Z,15.60
2018-10-04T06:19:12.355Z,15.60
2018-10-04T06:21:39.877Z,15.60
2018-10-04T06:24:07.199Z,15.50
2018-10-04T06:26:34.886Z,15.60
2018-10-04T06:29:02.169Z,15.60
2018-10-04T06:31:29.433Z,15.60
2018-10-04T06:33:56.678Z,15.70
2018-10-04T06:36:23.932Z,15.60
2018-10-04T06:38:51.202Z,15.60
2018-10-04T06:41:18.431Z,15.60
2018-10-04T06:43:45.674Z,15.70
2018-10-04T06:46:12.999Z,15.70
2018-10-04T06:48:40.247Z,15.70
2018-10-04T06:51:07.529Z,15.70
2018-10-04T06:53:34.946Z,15.80
2018-10-04T06:56:02.206Z,15.80
2018-10-04T06:58:29.461Z,15.80
2018-10-04T07:00:56.712Z,15.80
2018-10-04T07:03:23.988Z,15.90
2018-10-04T07:05:51.230Z,15.90
2018-10-04T07:08:18.486Z,15.90
2018-10-04T07:10:45.835Z,15.90
2018-10-04T07:13:13.119Z,15.90
2018-10-04T07:15:40.421Z,16.00
2018-10-04T07:18:07.667Z,16.00
2018-10-04T07:20:35.147Z,16.00
2018-10-04T07:23:02.513Z,16.00
2018-10-04T07:25:29.794Z,16.00
2018-10-04T07:27:57.054Z,16.10
2018-10-04T07:30:24.326Z,16.00
2018-10-04T07:32:51.592Z,16.10
2018-10-04T07:35:18.843Z,16.10
2018-10-04T07:37:46.137Z,16.10
2018-10-04T07:40:13.387Z,16.10
2018-10-04T07:42:40.649Z,16.20
2018-10-04T07:45:07.922Z,16.20
2018-10-04T07:47:35.162Z,16.20
2018-10-04T07:50:02.528Z,16.30
2018-10-04T07:52:29.836Z,16.30
2018-10-04T07:54:57.082Z,16.30
2018-10-04T07:57:24.329Z,16.40
2018-10-04T07:59:51.592Z,16.40
2018-10-04T08:02:18.837Z,16.50
2018-10-04T08:04:46.509Z,16.50
2018-10-04T08:07:13.742Z,16.50
2018-10-04T08:09:41.025Z,16.50
2018-10-04T08:12:08.282Z,16.60
2018-10-04T08:14:35.553Z,16.60
2018-10-04T08:17:02.837Z,16.70
2018-10-04T08:19:30.132Z,16.70
2018-10-04T08:21:57.374Z,16.80
2018-10-04T08:24:24.626Z,16.80
2018-10-04T08:26:51.879Z,16.90
2018-10-04T08:29:19.142Z,16.90
2018-10-04T08:31:46.395Z,17.00
2018-10-04T08:34:13.654Z,17.10
2018-10-04T08:36:40.908Z,17.10
2018-10-04T08:39:08.785Z,17.20
2018-10-04T08:41:36.505Z,17.30
2018-10-04T08:44:03.882Z,17.40
2018-10-04T08:46:31.149Z,17.50
2018-10-04T08:48:58.589Z,17.60
2018-10-04T08:51:31.678Z,17.70
2018-10-04T08:53:58.951Z,17.80
2018-10-04T08:56:26.185Z,17.80
2018-10-04T08:58:53.426Z,17.90
2018-10-04T09:01:20.686Z,18.00
2018-10-04T09:03:53.820Z,18.10
2018-10-04T09:06:21.337Z,18.20
2018-10-04T09:08:48.619Z,18.30
2018-10-04T09:11:15.862Z,18.40
2018-10-04T09:13:43.127Z,18.50
2018-10-04T09:16:10.382Z,18.60
2018-10-04T09:18:37.682Z,18.70
2018-10-04T09:21:07.507Z,18.80
2018-10-04T09:23:34.929Z,18.90
2018-10-04T09:26:02.191Z,19.00
2018-10-04T09:28:29.482Z,19.10
2018-10-04T09:31:02.622Z,19.10
2018-10-04T09:33:29.891Z,19.20
2018-10-04T09:35:57.143Z,19.20
2018-10-04T09:38:24.393Z,19.30
2018-10-04T09:40:51.687Z,19.30
2018-10-04T09:43:18.939Z,19.40
2018-10-04T09:45:46.242Z,19.40
2018-10-04T09:48:13.514Z,19.50
2018-10-04T09:50:41.018Z,19.50
2018-10-04T09:53:09.146Z,19.60
2018-10-04T09:55:42.174Z,19.60
2018-10-04T09:58:09.445Z,19.80
2018-10-04T10:00:42.534Z,19.80
2018-10-04T10:03:09.794Z,19.90
2018-10-04T10:05:37.147Z,20.00
2018-10-04T10:08:04.580Z,20.10
2018-10-04T10:10:32.258Z,20.20
2018-10-04T10:12:59.517Z,20.30
2018-10-04T10:15:26.779Z,20.30
2018-10-04T10:17:54.074Z,20.40
2018-10-04T10:20:21.358Z,20.50
2018-10-04T10:22:48.622Z,20.50
2018-10-04T10:25:15.882Z,20.60
2018-10-04T10:27:43.129Z,20.60
2018-10-04T10:30:10.416Z,20.70
2018-10-04T10:32:37.662Z,20.80
2018-10-04T10:35:04.945Z,20.80
2018-10-04T10:37:32.213Z,20.90
2018-10-04T10:39:59.904Z,20.90
2018-10-04T10:42:27.083Z,21.00
2018-10-04T10:44:54.448Z,21.00
2018-10-04T10:47:21.698Z,21.10
2018-10-04T10:49:48.962Z,21.10
2018-10-04T10:52:16.412Z,21.20
2018-10-04T10:54:43.750Z,21.20
2018-10-04T10:57:11.050Z,21.30
2018-10-04T10:59:38.330Z,21.30
2018-10-04T11:02:05.616Z,21.30
2018-10-04T11:04:32.884Z,21.30
2018-10-04T11:07:00.379Z,21.40
2018-10-04T11:09:27.649Z,21.40
2018-10-04T11:11:54.930Z,21.40
2018-10-04T11:14:22.195Z,21.50
2018-10-04T11:16:49.516Z,21.50
2018-10-04T11:19:16.953Z,21.50
2018-10-04T11:21:44.225Z,21.60
2018-10-04T11:24:11.523Z,21.50
2018-10-04T11:26:39.222Z,21.60
2018-10-04T11:29:06.571Z,21.60
2018-10-04T11:31:33.782Z,21.50
2018-10-04T11:34:01.183Z,21.70
2018-10-04T11:36:29.086Z,21.50
2018-10-04T11:38:56.396Z,21.40
2018-10-04T11:41:23.703Z,21.40
2018-10-04T11:43:53.186Z,21.40
2018-10-04T11:46:20.923Z,21.40
2018-10-04T11:48:48.578Z,21.40
2018-10-04T11:51:16.186Z,21.40
2018-10-04T11:53:43.719Z,21.50
2018-10-04T11:56:11.008Z,21.50
2018-10-04T11:58:38.354Z,21.50
2018-10-04T12:01:05.867Z,21.50
2018-10-04T12:03:33.134Z,21.60
2018-10-04T12:06:00.574Z,21.60
2018-10-04T12:08:27.847Z,21.60
2018-10-04T12:10:55.155Z,21.70
2018-10-04T12:13:22.477Z,21.70
2018-10-04T12:15:49.695Z,21.80
2018-10-04T12:18:16.958Z,21.80
2018-10-04T12:20:44.236Z,21.80
2018-10-04T12:23:11.502Z,21.90
2018-10-04T12:25:39.095Z,21.90
2018-10-04T12:28:06.353Z,21.90
2018-10-04T12:30:33.672Z,22.00
2018-10-04T12:33:00.895Z,22.00
2018-10-04T12:35:28.182Z,22.00
2018-10-04T12:37:55.499Z,22.10
2018-10-04T12:40:22.764Z,22.20
2018-10-04T12:42:50.009Z,22.20
2018-10-04T12:45:17.322Z,22.30
2018-10-04T12:47:44.609Z,22.40
2018-10-04T12:50:11.880Z,22.40
2018-10-04T12:52:39.237Z,22.50
2018-10-04T12:55:06.542Z,22.60
2018-10-04T12:57:33.796Z,22.60
2018-10-04T13:00:01.051Z,22.70
2018-10-04T13:02:28.318Z,22.70
2018-10-04T13:04:55.598Z,22.80
2018-10-04T13:07:22.964Z,22.80
2018-10-04T13:09:50.259Z,22.80
2018-10-04T13:12:17.527Z,22.80
2018-10-04T13:14:44.770Z,22.80
2018-10-04T13:17:12.060Z,22.80
2018-10-04T13:19:39.699Z,22.80
2018-10-04T13:22:07.048Z,22.90
2018-10-04T13:24:34.492Z,22.90
2018-10-04T13:27:01.886Z,22.90
2018-10-04T13:29:29.475Z,23.00
2018-10-04T13:31:56.750Z,23.00
2018-10-04T13:34:24.011Z,23.00
2018-10-04T13:36:51.667Z,23.10
2018-10-04T13:39:18.935Z,23.10
2018-10-04T13:41:46.231Z,23.00
2018-10-04T13:44:13.728Z,23.00
2018-10-04T13:46:41.070Z,23.10
2018-10-04T13:49:08.339Z,23.10
2018-10-04T13:51:35.716Z,23.20
2018-10-04T13:54:03.009Z,23.20
2018-10-04T13:56:30.314Z,23.20
2018-10-04T13:58:57.666Z,23.20
2018-10-04T14:01:24.911Z,23.20
2018-10-04T14:03:52.373Z,23.10
2018-10-04T14:06:19.823Z,23.20
2018-10-04T14:08:47.063Z,23.10
2018-10-04T14:11:14.319Z,23.10
2018-10-04T14:13:41.578Z,23.00
2018-10-04T14:16:08.858Z,23.00
2018-10-04T14:18:36.162Z,23.00
2018-10-04T14:21:03.439Z,22.90
2018-10-04T14:23:30.713Z,22.90
2018-10-04T14:25:58.248Z,22.80
2018-10-04T14:28:25.498Z,22.80
2018-10-04T14:30:52.768Z,22.80
2018-10-04T14:33:20.134Z,22.80
2018-10-04T14:35:47.425Z,22.80
2018-10-04T14:38:14.717Z,22.80
2018-10-04T14:40:41.974Z,22.80
2018-10-04T14:43:09.240Z,22.70
2018-10-04T14:45:36.773Z,22.70
2018-10-04T14:48:04.114Z,22.70
2018-10-04T14:50:31.395Z,22.70
2018-10-04T14:52:59.040Z,22.60
2018-10-04T14:55:26.314Z,22.60
2018-10-04T14:57:53.575Z,22.60
2018-10-04T15:00:20.879Z,22.60
2018-10-04T15:02:48.191Z,22.60
2018-10-04T15:05:15.523Z,22.60
2018-10-04T15:07:42.868Z,22.60
2018-10-04T15:10:10.134Z,22.60
2018-10-04T15:12:37.464Z,22.50
2018-10-04T15:15:04.800Z,22.40
2018-10-04T15:17:32.131Z,22.40
2018-10-04T15:19:59.341Z,22.40
2018-10-04T15:22:26.635Z,22.30
2018-10-04T15:24:53.938Z,22.30
2018-10-04T15:27:21.219Z,22.20
2018-10-04T15:29:48.523Z,22.20
2018-10-04T15:32:15.763Z,22.20
2018-10-04T15:34:43.087Z,22.10
2018-10-04T15:37:10.379Z,22.10
2018-10-04T15:39:37.688Z,22.00
2018-10-04T15:42:05.042Z,22.10
2018-10-04T15:44:32.460Z,22.00
2018-10-04T15:46:59.722Z,22.00
2018-10-04T15:49:27.098Z,22.00
2018-10-04T15:51:54.350Z,21.90
2018-10-04T15:54:21.625Z,21.90
2018-10-04T15:56:48.902Z,21.80
2018-10-04T15:59:16.166Z,21.70
2018-10-04T16:01:43.513Z,21.70
2018-10-04T16:04:10.826Z,21.60
2018-10-04T16:06:38.174Z,21.60
2018-10-04T16:09:06.744Z,21.50
2018-10-04T16:11:34.274Z,21.40
2018-10-04T16:14:01.580Z,21.30
2018-10-04T16:16:28.806Z,21.30
2018-10-04T16:18:56.347Z,21.30
2018-10-04T16:21:23.623Z,21.20
2018-10-04T16:23:50.899Z,21.10
2018-10-04T16:26:18.201Z,21.10
2018-10-04T16:28:45.459Z,21.00
2018-10-04T16:31:12.767Z,21.00
2018-10-04T16:33:40.171Z,21.00
2018-10-04T16:36:07.491Z,21.00
2018-10-04T16:38:34.751Z,20.90
2018-10-04T16:41:02.222Z,20.80
2018-10-04T16:43:29.495Z,20.80
2018-10-04T16:45:56.783Z,20.70
2018-10-04T16:48:24.107Z,20.70
2018-10-04T16:50:51.540Z,20.60
2018-10-04T16:53:18.816Z,20.50
2018-10-04T16:55:46.111Z,20.50
2018-10-04T16:58:13.444Z,20.40
2018-10-04T17:00:40.742Z,20.30
2018-10-04T17:03:08.067Z,20.20
2018-10-04T17:05:35.358Z,20.20
2018-10-04T17:08:02.622Z,20.10
2018-10-04T17:10:29.851Z,20.00
2018-10-04T17:12:57.113Z,20.00
2018-10-04T17:15:24.356Z,19.90
2018-10-04T17:17:51.636Z,19.80
2018-10-04T17:20:19.094Z,19.70
2018-10-04T17:22:46.351Z,19.60
2018-10-04T17:25:13.602Z,19.50
2018-10-04T17:27:40.851Z,19.40
2018-10-04T17:30:08.120Z,19.40
2018-10-04T17:32:35.455Z,19.30
2018-10-04T17:35:02.744Z,19.20
2018-10-04T17:37:30.039Z,19.10
2018-10-04T17:39:57.401Z,19.00
2018-10-04T17:42:24.658Z,18.90
2018-10-04T17:44:51.958Z,18.90
2018-10-04T17:47:19.250Z,18.80
2018-10-04T17:49:46.488Z,18.70
2018-10-04T17:52:13.866Z,18.70
2018-10-04T17:54:41.339Z,18.60
2018-10-04T17:57:08.588Z,18.50
2018-10-04T17:59:35.818Z,18.40
2018-10-04T18:02:03.098Z,18.40
2018-10-04T18:04:30.388Z,18.30
2018-10-04T18:06:57.985Z,18.20
2018-10-04T18:09:25.252Z,18.10
2018-10-04T18:11:52.507Z,18.10
2018-10-04T18:14:19.818Z,18.00
2018-10-04T18:16:47.069Z,18.00
2018-10-04T18:19:14.318Z,17.90
2018-10-04T18:21:41.586Z,17.80
2018-10-04T18:24:09.357Z,17.80
2018-10-04T18:26:36.770Z,17.70
2018-10-04T18:29:04.022Z,17.70
2018-10-04T18:31:31.289Z,17.60
2018-10-04T18:33:58.796Z,17.60
2018-10-04T18:36:26.039Z,17.50
2018-10-04T18:38:53.298Z,17.50
2018-10-04T18:41:20.542Z,17.40
2018-10-04T18:43:47.861Z,17.40
2018-10-04T18:46:15.122Z,17.30
2018-10-04T18:48:42.606Z,17.30
2018-10-04T18:51:09.963Z,17.30
2018-10-04T18:53:37.218Z,17.20
2018-10-04T18:56:04.490Z,17.20
2018-10-04T18:58:31.733Z,17.10
2018-10-04T19:00:59.001Z,17.10
2018-10-04T19:03:26.433Z,17.10
2018-10-04T19:05:53.765Z,17.00
2018-10-04T19:08:20.947Z,17.00
2018-10-04T19:10:48.506Z,17.00
2018-10-04T19:13:15.743Z,16.90
2018-10-04T19:15:42.994Z,16.90
2018-10-04T19:18:10.254Z,16.90
2018-10-04T19:20:37.478Z,16.80
2018-10-04T19:23:04.753Z,16.80
2018-10-04T19:25:32.074Z,16.80
2018-10-04T19:27:59.334Z,16.70
2018-10-04T19:30:26.595Z,16.70
2018-10-04T19:32:53.858Z,16.70
2018-10-04T19:35:21.103Z,16.70
2018-10-04T19:37:48.333Z,16.60
2018-10-04T19:40:15.623Z,16.60
2018-10-04T19:42:42.862Z,16.60
2018-10-04T19:45:10.198Z,16.60
2018-10-04T19:47:37.466Z,16.50
2018-10-04T19:50:05.152Z,16.50
2018-10-04T19:52:32.612Z,16.50
2018-10-04T19:54:59.850Z,16.50
2018-10-04T19:57:27.094Z,16.40
2018-10-04T19:59:54.346Z,16.40
2018-10-04T20:02:21.617Z,16.40
2018-10-04T20:04:48.864Z,16.40
2018-10-04T20:07:16.327Z,16.40
2018-10-04T20:09:43.602Z,16.40
2018-10-04T20:12:10.867Z,16.30
2018-10-04T20:14:38.386Z,16.30
2018-10-04T20:17:05.641Z,16.30
2018-10-04T20:19:32.902Z,16.30
2018-10-04T20:22:00.348Z,16.30
2018-10-04T20:24:27.791Z,16.20
2018-10-04T20:26:55.076Z,16.20
2018-10-04T20:29:22.378Z,16.20
2018-10-04T20:31:49.639Z,16.20
2018-10-04T20:34:16.881Z,16.10
2018-10-04T20:36:44.122Z,16.10
2018-10-04T20:39:11.423Z,16.10
2018-10-04T20:41:38.670Z,16.00
2018-10-04T20:44:05.946Z,16.00
2018-10-04T20:46:33.219Z,16.00
2018-10-04T20:49:00.478Z,16.00
2018-10-04T20:51:27.793Z,15.80
2018-10-04T20:53:55.055Z,15.90
2018-10-04T20:56:22.329Z,15.80
2018-10-04T20:58:49.592Z,15.80
2018-10-04T21:01:17.981Z,15.80
2018-10-04T21:03:45.225Z,15.70
2018-10-04T21:06:12.735Z,15.70
2018-10-04T21:08:40.005Z,15.70
2018-10-04T21:11:07.283Z,15.60
2018-10-04T21:13:34.591Z,15.60
2018-10-04T21:16:01.840Z,15.50
2018-10-04T21:18:29.098Z,15.50
2018-10-04T21:20:56.392Z,15.40
2018-10-04T21:23:23.653Z,15.40
2018-10-04T21:25:50.940Z,15.40
2018-10-04T21:28:18.199Z,15.40
2018-10-04T21:30:45.487Z,15.30
2018-10-04T21:33:12.771Z,15.30
2018-10-04T21:35:40.038Z,15.20
2018-10-04T21:38:07.294Z,15.20
2018-10-04T21:40:34.572Z,15.10
2018-10-04T21:43:01.818Z,15.10
2018-10-04T21:45:29.242Z,15.00
2018-10-04T21:47:56.501Z,15.00
2018-10-04T21:50:23.742Z,14.90
2018-10-04T21:52:51.279Z,14.90
2018-10-04T21:55:18.533Z,14.90
2018-10-04T21:57:45.826Z,14.80
2018-10-04T22:00:13.122Z,14.80
2018-10-04T22:02:40.398Z,14.70
2018-10-04T22:05:07.669Z,14.70
2018-10-04T22:07:34.921Z,14.60
2018-10-04T22:10:02.372Z,14.60
2018-10-04T22:12:29.662Z,14.50
2018-10-04T22:14:57.040Z,14.50
2018-10-04T22:17:24.481Z,14.50
2018-10-04T22:19:51.742Z,14.40
2018-10-04T22:22:18.987Z,14.40
2018-10-04T22:24:46.275Z,14.30
2018-10-04T22:27:13.782Z,14.30
2018-10-04T22:29:41.113Z,14.30
2018-10-04T22:32:08.357Z,14.20
2018-10-04T22:34:36.606Z,14.20
2018-10-04T22:37:04.035Z,14.10
2018-10-04T22:39:31.674Z,14.10
2018-10-04T22:41:59.372Z,14.10
2018-10-04T22:44:26.622Z,14.00
2018-10-04T22:46:54.058Z,14.00
2018-10-04T22:49:21.522Z,14.00
2018-10-04T22:51:48.772Z,13.90
2018-10-04T22:54:16.018Z,13.90
2018-10-04T22:56:43.271Z,13.80
2018-10-04T22:59:10.526Z,13.80
2018-10-04T23:01:37.909Z,13.80
2018-10-04T23:04:05.179Z,13.70
2018-10-04T23:06:32.427Z,13.70
2018-10-04T23:08:59.851Z,13.60
2018-10-04T23:11:27.093Z,13.60
2018-10-04T23:13:54.338Z,13.60
2018-10-04T23:16:21.602Z,13.60
2018-10-04T23:18:48.897Z,13.50
2018-10-04T23:21:16.135Z,13.50
2018-10-04T23:23:43.478Z,13.50
2018-10-04T23:26:10.750Z,13.50
2018-10-04T23:28:38.062Z,13.50
2018-10-04T23:31:05.738Z,13.40
2018-10-04T23:33:32.981Z,13.40
2018-10-04T23:36:00.235Z,13.40
2018-10-04T23:38:27.489Z,13.40
2018-10-04T23:40:54.733Z,13.40
2018-10-04T23:43:21.970Z,13.40
2018-10-04T23:45:49.222Z,13.40
2018-10-04T23:48:16.482Z,13.40
2018-10-04T23:50:43.735Z,13.40
2018-10-04T23:53:10.987Z,13.30
2018-10-04T23:55:38.258Z,13.40
2018-10-04T23:58:05.585Z,13.30
